Time;durP1;ratioP1;P1;durP2;ratioP2;P2;SDS_P1;SDS_P2;PMS_P1;PMS_P2;Temp;Humidity;BMP_temperature;BMP_pressure;BME280_temperature;BME280_humidity;BME280_pressure;Samples;Min_cycle;Max_cycle;Signal;HPM_P1;HPM_P2
2024/02/22 00:01:01;;;;;;;12.18;9.10;;;;;;;6.82;100.00;100052.66;5094622;28;20405;-69
2024/02/22 00:03:26;;;;;;;13.55;8.77;;;;;;;6.84;100.00;100057.94;5103729;28;20070;-69
2024/02/22 00:05:52;;;;;;;12.45;8.60;;;;;;;6.91;100.00;100046.47;5092007;28;20070;-69
2024/02/22 00:08:17;;;;;;;13.52;8.48;;;;;;;6.94;100.00;100051.44;5112746;28;20492;-69
2024/02/22 00:10:43;;;;;;;10.48;7.30;;;;;;;6.91;98.93;100049.25;5112650;28;20352;-69
2024/02/22 00:13:10;;;;;;;9.40;6.82;;;;;;;7.00;98.15;100039.94;5112754;28;20031;-70
2024/02/22 00:15:36;;;;;;;14.18;6.53;;;;;;;7.09;97.57;100045.66;5113069;28;20645;-69
2024/02/22 00:18:03;;;;;;;8.85;5.25;;;;;;;6.94;96.82;100038.38;5107649;28;20079;-70
2024/02/22 00:20:29;;;;;;;7.75;5.80;;;;;;;6.95;97.96;100033.63;5092196;28;20466;-69
2024/02/22 00:22:54;;;;;;;5.47;3.90;;;;;;;7.04;96.21;100037.41;5092441;28;20023;-69
2024/02/22 00:25:21;;;;;;;4.90;4.13;;;;;;;6.90;95.89;100026.16;5092089;28;20028;-69
2024/02/22 00:27:47;;;;;;;5.03;4.07;;;;;;;6.80;96.42;100026.28;5073834;28;20116;-69
2024/02/22 00:30:13;;;;;;;5.03;3.95;;;;;;;6.83;95.99;100014.59;5087258;28;20122;-69
2024/02/22 00:32:41;;;;;;;3.90;3.40;;;;;;;6.97;96.61;100020.22;5094093;28;20027;-69
2024/02/22 00:35:08;;;;;;;3.85;3.35;;;;;;;6.94;95.50;100012.50;5101001;28;20701;-70
2024/02/22 00:37:35;;;;;;;4.65;3.80;;;;;;;6.90;94.67;100017.00;5091757;28;20020;-70
2024/02/22 00:40:04;;;;;;;5.20;3.28;;;;;;;6.92;94.14;100011.97;5091459;28;20028;-70
2024/02/22 00:42:31;;;;;;;5.85;2.80;;;;;;;6.86;94.37;100000.88;5091612;28;20023;-70
2024/02/22 00:44:57;;;;;;;4.45;3.15;;;;;;;6.86;94.38;100003.66;5073689;28;20043;-70
2024/02/22 00:47:22;;;;;;;4.80;3.13;;;;;;;6.79;93.78;100000.44;5091869;28;20408;-70
2024/02/22 00:49:48;;;;;;;2.92;2.63;;;;;;;6.96;93.28;99997.16;5091691;28;20389;-70
2024/02/22 00:52:13;;;;;;;4.40;3.17;;;;;;;6.93;92.57;99986.63;5097457;28;20554;-70
2024/02/22 00:54:41;;;;;;;4.80;3.13;;;;;;;7.05;91.94;99980.63;5073838;28;20548;-70
2024/02/22 00:57:06;;;;;;;5.03;2.83;;;;;;;7.03;91.26;99971.78;5101113;28;20439;-70
2024/02/22 00:59:33;;;;;;;4.47;2.92;;;;;;;7.06;91.37;99976.72;5112024;28;20023;-70
2024/02/22 01:01:59;;;;;;;3.30;3.00;;;;;;;7.06;90.99;99976.72;5111793;28;20456;-70
2024/02/22 01:04:26;;;;;;;4.05;3.33;;;;;;;7.14;91.62;99980.78;5111942;28;20023;-70
2024/02/22 01:06:52;;;;;;;3.70;2.92;;;;;;;7.12;92.45;99978.31;5092909;28;20036;-70
2024/02/22 01:09:18;;;;;;;4.05;3.65;;;;;;;7.02;92.78;99978.47;5093513;28;20126;-70
2024/02/22 01:11:44;;;;;;;6.03;4.43;;;;;;;7.09;92.58;99976.13;5111787;28;20055;-70
2024/02/22 01:14:10;;;;;;;7.32;3.90;;;;;;;7.09;92.97;99983.66;5111673;28;20087;-70
2024/02/22 01:16:35;;;;;;;6.50;4.63;;;;;;;7.09;92.54;99976.13;5111674;28;20023;-70
2024/02/22 01:19:01;;;;;;;5.18;4.05;;;;;;;6.99;93.33;99967.91;5111097;28;20419;-70
2024/02/22 01:21:26;;;;;;;4.13;3.70;;;;;;;7.12;92.93;99971.91;5111566;28;20024;-70
2024/02/22 01:23:52;;;;;;;4.97;3.65;;;;;;;7.18;92.02;99964.34;5111437;28;20046;-70
2024/02/22 01:26:17;;;;;;;5.15;3.92;;;;;;;7.22;91.18;99970.94;5093128;28;20024;-70
2024/02/22 01:28:43;;;;;;;8.13;4.75;;;;;;;7.09;91.61;99964.19;5093037;28;20568;-70
2024/02/22 01:31:09;;;;;;;6.30;5.00;;;;;;;7.20;91.39;99962.06;5092869;28;20024;-70
2024/02/22 01:33:35;;;;;;;5.38;3.80;;;;;;;7.19;90.50;99957.63;5111449;28;20024;-70
2024/02/22 01:36:02;;;;;;;4.72;3.45;;;;;;;7.05;89.88;99952.81;5111339;28;20479;-70
2024/02/22 01:38:27;;;;;;;4.22;3.60;;;;;;;6.72;90.20;99953.53;5111191;28;20086;-70
2024/02/22 01:40:53;;;;;;;4.78;3.50;;;;;;;6.55;91.35;99942.06;5110521;28;20020;-70
2024/02/22 01:43:18;;;;;;;5.25;4.13;;;;;;;6.22;93.17;99941.91;5111146;28;20048;-72
2024/02/22 01:45:44;;;;;;;5.57;3.83;;;;;;;6.09;94.12;99948.97;5090493;28;20020;-72
2024/02/22 01:48:09;;;;;;;5.80;4.00;;;;;;;6.06;94.09;99949.56;5096219;28;20480;-72
2024/02/22 01:50:39;;;;;;;4.80;3.42;;;;;;;5.86;96.13;99945.81;5110685;28;20020;-73
2024/02/22 01:53:06;;;;;;;3.92;3.33;;;;;;;5.76;97.23;99941.19;5094762;28;20027;-73
2024/02/22 01:55:32;;;;;;;4.45;3.42;;;;;;;5.71;96.54;99939.28;5090254;28;20519;-73
2024/02/22 01:57:57;;;;;;;5.18;4.18;;;;;;;5.45;98.25;99942.28;5071844;28;20139;-72
2024/02/22 02:00:23;;;;;;;4.70;3.50;;;;;;;5.45;98.47;99946.97;5090743;28;20020;-72
2024/02/22 02:02:50;;;;;;;5.55;3.13;;;;;;;5.13;100.00;99949.13;5100597;28;20168;-72
2024/02/22 02:05:18;;;;;;;5.88;4.15;;;;;;;5.02;100.00;99930.91;5092357;28;20092;-72
2024/02/22 02:07:45;;;;;;;5.05;4.00;;;;;;;5.02;100.00;99928.13;5110470;28;20103;-72
2024/02/22 02:10:10;;;;;;;4.82;3.38;;;;;;;5.15;100.00;99932.22;5110105;28;20023;-72
2024/02/22 02:12:37;;;;;;;4.38;3.65;;;;;;;5.07;100.00;99925.34;5108696;28;20027;-72
2024/02/22 02:15:04;;;;;;;4.13;3.38;;;;;;;4.86;100.00;99930.16;5110231;28;20035;-72
2024/02/22 02:17:29;;;;;;;4.03;3.47;;;;;;;4.80;100.00;99929.34;5108123;28;20027;-72
2024/02/22 02:19:57;;;;;;;5.95;3.70;;;;;;;4.79;100.00;99936.00;5110291;28;20030;-72
2024/02/22 02:22:57;;;;;;;4.03;3.28;;;;;;;4.78;100.00;99937.13;5091713;28;20123;-72
2024/02/22 02:25:25;;;;;;;5.88;3.78;;;;;;;4.78;100.00;99937.13;5109331;28;20106;-72
2024/02/22 02:27:52;;;;;;;5.10;3.75;;;;;;;4.84;100.00;99938.78;5109906;28;20050;-72
2024/02/22 02:30:17;;;;;;;4.47;3.25;;;;;;;4.94;99.66;99942.56;5109765;28;20488;-72
2024/02/22 02:32:43;;;;;;;5.32;3.70;;;;;;;5.03;98.34;99943.63;5102840;28;20085;-72
2024/02/22 02:35:09;;;;;;;5.55;3.60;;;;;;;5.03;98.26;99933.41;5071707;28;20092;-72
2024/02/22 02:37:34;;;;;;;5.07;3.70;;;;;;;5.01;98.62;99941.19;5089701;28;20484;-72
2024/02/22 02:40:00;;;;;;;5.03;4.32;;;;;;;5.01;98.98;99943.09;5089185;28;20059;-72
2024/02/22 02:42:25;;;;;;;5.80;4.70;;;;;;;5.04;97.83;99939.75;5092589;28;20393;-72
2024/02/22 02:44:51;;;;;;;7.88;4.70;;;;;;;5.01;98.46;99935.63;5090339;28;20051;-72
2024/02/22 02:47:16;;;;;;;7.63;5.75;;;;;;;4.85;99.36;99936.81;5109991;28;20030;-72
2024/02/22 02:49:42;;;;;;;7.68;5.60;;;;;;;4.47;100.00;99942.81;5090765;28;20512;-72
2024/02/22 02:52:08;;;;;;;9.25;6.40;;;;;;;4.18;100.00;99943.44;5110031;28;20028;-72
2024/02/22 02:54:33;;;;;;;8.95;6.47;;;;;;;4.11;100.00;99934.63;5109257;28;20565;-70
2024/02/22 02:56:59;;;;;;;6.82;5.45;;;;;;;4.12;100.00;99937.06;5095956;28;20024;-70
2024/02/22 02:59:24;;;;;;;7.25;5.45;;;;;;;4.12;100.00;99939.84;5098167;28;20080;-70
2024/02/22 03:01:50;;;;;;;9.13;4.80;;;;;;;4.05;100.00;99925.47;5091105;28;20028;-70
2024/02/22 03:04:17;;;;;;;5.95;4.50;;;;;;;3.96;100.00;99916.91;5083328;28;20032;-70
2024/02/22 03:06:46;;;;;;;7.03;5.38;;;;;;;4.02;100.00;99921.31;5095905;28;20040;-70
2024/02/22 03:09:12;;;;;;;7.40;6.15;;;;;;;3.96;100.00;99919.66;5114189;28;20036;-70
2024/02/22 03:11:39;;;;;;;8.38;6.45;;;;;;;3.90;100.00;99923.56;5095455;28;20044;-70
2024/02/22 03:14:04;;;;;;;12.40;8.88;;;;;;;3.83;100.00;99920.25;5106320;28;20081;-70
2024/02/22 03:16:30;;;;;;;11.23;6.55;;;;;;;3.83;100.00;99920.25;5075371;28;20031;-70
2024/02/22 03:18:55;;;;;;;8.73;6.40;;;;;;;3.91;100.00;99925.22;5075851;28;20020;-70
2024/02/22 03:21:21;;;;;;;5.72;4.82;;;;;;;3.88;100.00;99921.06;5101737;28;20028;-70
2024/02/22 03:23:49;;;;;;;8.18;4.80;;;;;;;3.89;100.00;99921.91;5095693;28;20028;-70
2024/02/22 03:26:16;;;;;;;8.20;4.63;;;;;;;3.87;100.00;99927.72;5095601;28;20081;-70
2024/02/22 03:28:42;;;;;;;6.07;4.25;;;;;;;3.88;100.00;99926.59;5113493;28;20050;-70
2024/02/22 03:31:08;;;;;;;7.72;5.10;;;;;;;3.88;100.00;99931.31;5094257;28;20035;-70
2024/02/22 03:33:34;;;;;;;8.45;5.13;;;;;;;3.81;100.00;99936.31;5095306;28;20107;-70
2024/02/22 03:36:00;;;;;;;7.05;5.78;;;;;;;3.75;100.00;99933.56;5095231;28;20488;-70
2024/02/22 03:38:26;;;;;;;6.65;5.05;;;;;;;3.98;100.00;99934.09;5094702;28;20016;-70
2024/02/22 03:40:53;;;;;;;6.78;4.65;;;;;;;4.20;100.00;99946.75;5093492;28;20118;-70
2024/02/22 03:43:19;;;;;;;7.38;5.50;;;;;;;4.08;100.00;99942.34;5094614;28;20096;-70
2024/02/22 03:45:45;;;;;;;6.43;4.78;;;;;;;4.08;100.00;99947.06;5094913;28;20019;-70
2024/02/22 03:48:10;;;;;;;6.90;4.68;;;;;;;3.88;100.00;99939.63;5113240;28;20047;-70
2024/02/22 03:50:36;;;;;;;8.57;6.55;;;;;;;3.96;100.00;99943.75;5094664;28;20023;-70
2024/02/22 03:53:01;;;;;;;8.35;6.60;;;;;;;3.98;100.00;99941.53;5099914;28;20397;-70
2024/02/22 03:55:27;;;;;;;13.30;7.45;;;;;;;3.84;100.00;99944.88;5092881;28;20035;-70
2024/02/22 03:57:52;;;;;;;8.52;6.05;;;;;;;3.69;100.00;99942.13;5074715;28;20520;-70
2024/02/22 04:00:18;;;;;;;12.40;7.45;;;;;;;3.81;100.00;99944.59;5107108;28;20500;-70
2024/02/22 04:02:46;;;;;;;14.27;8.63;;;;;;;3.65;100.00;99933.56;5096087;28;20502;-70
2024/02/22 04:05:14;;;;;;;12.80;9.13;;;;;;;3.70;100.00;99936.31;5113121;28;20028;-70
2024/02/22 04:07:39;;;;;;;16.20;11.45;;;;;;;3.70;100.00;99938.25;5094487;28;20027;-70
2024/02/22 04:10:05;;;;;;;17.52;11.07;;;;;;;3.62;100.00;99942.38;5094474;28;20080;-70
2024/02/22 04:12:31;;;;;;;8.90;7.45;;;;;;;3.48;100.00;99944.91;5094609;28;20028;-70
2024/02/22 04:14:56;;;;;;;8.43;5.35;;;;;;;3.52;100.00;99940.47;5111298;28;20027;-70
2024/02/22 04:17:21;;;;;;;8.32;5.90;;;;;;;3.48;100.00;99934.66;5093878;28;20019;-70
2024/02/22 04:19:47;;;;;;;10.00;6.78;;;;;;;3.53;100.00;99935.78;5094141;28;20031;-70
2024/02/22 04:22:12;;;;;;;9.25;7.20;;;;;;;3.43;100.00;99942.09;5094338;28;20076;-70
2024/02/22 04:24:40;;;;;;;7.13;5.78;;;;;;;3.20;100.00;99938.78;5112615;28;20408;-70
2024/02/22 04:27:05;;;;;;;9.27;6.38;;;;;;;2.95;100.00;99927.41;5092816;28;20415;-70
2024/02/22 04:29:31;;;;;;;13.75;5.68;;;;;;;2.90;100.00;99943.97;5090427;28;20015;-70
2024/02/22 04:31:57;;;;;;;8.48;5.40;;;;;;;2.80;100.00;99942.00;5111662;28;20053;-70
2024/02/22 04:34:22;;;;;;;15.50;8.63;;;;;;;2.84;100.00;99942.28;5112144;28;20031;-70
2024/02/22 04:36:48;;;;;;;12.65;8.45;;;;;;;3.02;100.00;99929.09;5093901;28;20035;-70
2024/02/22 04:39:14;;;;;;;11.77;7.13;;;;;;;2.86;100.00;99933.75;5096366;28;20073;-70
2024/02/22 04:41:40;;;;;;;10.68;6.50;;;;;;;3.03;100.00;99934.31;5074161;28;20050;-70
2024/02/22 04:44:06;;;;;;;8.55;6.57;;;;;;;3.00;100.00;99936.78;5089169;28;20019;-70
2024/02/22 04:46:32;;;;;;;10.82;6.85;;;;;;;2.93;100.00;99934.28;5111787;28;20022;-70
2024/02/22 04:49:04;;;;;;;26.73;16.45;;;;;;;2.93;100.00;99939.81;5093725;28;20028;-70
2024/02/22 04:51:31;;;;;;;63.88;37.83;;;;;;;2.80;100.00;99927.38;5111239;28;20100;-70
2024/02/22 04:53:56;;;;;;;51.80;33.88;;;;;;;2.90;100.00;99934.84;5093875;28;20114;-70
2024/02/22 04:56:22;;;;;;;28.27;20.65;;;;;;;3.00;100.00;99928.50;5093414;28;20035;-70
2024/02/22 04:58:47;;;;;;;20.88;16.48;;;;;;;2.85;100.00;99943.13;5093494;28;20051;-70
2024/02/22 05:01:13;;;;;;;18.10;12.80;;;;;;;2.70;100.00;99943.91;5110955;28;20038;-70
2024/02/22 05:03:39;;;;;;;19.30;10.73;;;;;;;2.92;100.00;99944.53;5111170;28;20031;-70
2024/02/22 05:06:05;;;;;;;19.55;14.90;;;;;;;3.13;100.00;99940.97;5111723;28;20043;-70
2024/02/22 05:08:31;;;;;;;18.55;12.70;;;;;;;3.37;100.00;99935.75;5093580;28;20173;-70
2024/02/22 05:10:56;;;;;;;25.48;14.43;;;;;;;3.47;100.00;99935.75;5110256;28;20020;-70
2024/02/22 05:13:22;;;;;;;29.67;14.25;;;;;;;3.62;100.00;99939.63;5111897;28;20587;-70
2024/02/22 05:15:48;;;;;;;31.23;15.95;;;;;;;3.65;100.00;99945.44;5110770;28;20488;-70
2024/02/22 05:18:13;;;;;;;23.55;13.40;;;;;;;3.58;100.00;99944.91;5112019;28;20031;-68
2024/02/22 05:20:39;;;;;;;21.38;14.85;;;;;;;3.38;100.00;99942.97;5112043;28;20419;-72
2024/02/22 05:23:07;;;;;;;21.67;14.18;;;;;;;3.30;100.00;99949.03;5089743;28;20095;-75
2024/02/22 05:25:33;;;;;;;48.58;29.20;;;;;;;3.43;100.00;99953.16;5111422;28;20032;-72
2024/02/22 05:27:59;;;;;;;61.08;29.90;;;;;;;3.57;100.00;99945.16;5105844;28;20476;-71
2024/02/22 05:30:25;;;;;;;72.43;38.25;;;;;;;3.70;100.00;99946.56;5110166;28;20070;-72
2024/02/22 05:32:50;;;;;;;75.90;38.78;;;;;;;3.68;100.00;99937.69;5091713;28;20043;-72
2024/02/22 05:35:16;;;;;;;64.60;39.40;;;;;;;3.75;100.00;99952.09;5107997;28;20027;-72
2024/02/22 05:37:42;;;;;;;45.90;29.75;;;;;;;3.62;100.00;99950.69;5108612;28;20416;-69
2024/02/22 05:40:10;;;;;;;34.35;23.58;;;;;;;3.81;100.00;99955.69;5108207;28;20034;-69
2024/02/22 05:42:36;;;;;;;49.03;29.17;;;;;;;3.81;100.00;99952.91;5110508;28;20027;-69
2024/02/22 05:45:03;;;;;;;55.13;31.27;;;;;;;3.78;100.00;99966.19;5092022;28;20034;-70
2024/02/22 05:47:29;;;;;;;44.28;27.35;;;;;;;3.83;100.00;99970.06;5084401;28;20124;-71
2024/02/22 05:49:54;;;;;;;34.95;20.08;;;;;;;3.93;100.00;99965.38;5092027;28;20073;-70
2024/02/22 05:52:20;;;;;;;27.58;16.60;;;;;;;4.12;100.00;99962.00;5091485;28;20030;-71
2024/02/22 05:54:45;;;;;;;29.05;16.92;;;;;;;3.74;100.00;99953.19;5092160;28;20031;-74
2024/02/22 05:57:12;;;;;;;31.50;15.48;;;;;;;4.11;100.00;99967.84;5084599;28;20052;-71
2024/02/22 05:59:38;;;;;;;28.88;19.17;;;;;;;4.14;100.00;99978.34;5092497;28;20411;-75
2024/02/22 06:02:03;;;;;;;24.90;16.80;;;;;;;4.27;100.00;99969.44;5109988;28;20032;-74
2024/02/22 06:04:29;;;;;;;20.95;14.10;;;;;;;4.28;100.00;99984.94;5090213;28;20089;-74
2024/02/22 06:06:55;;;;;;;19.77;12.57;;;;;;;4.14;100.00;99975.56;5090079;28;20028;-73
2024/02/22 06:09:20;;;;;;;19.55;14.23;;;;;;;3.83;100.00;99981.97;5095825;28;20034;-73
2024/02/22 06:11:45;;;;;;;17.25;11.32;;;;;;;3.93;100.00;99989.44;5088932;28;20043;-73
2024/02/22 06:14:11;;;;;;;17.45;10.57;;;;;;;3.51;100.00;99985.81;5088130;28;20820;-72
2024/02/22 06:16:36;;;;;;;19.35;11.73;;;;;;;3.26;100.00;99992.97;5089729;28;20127;-72
2024/02/22 06:19:02;;;;;;;23.65;11.48;;;;;;;3.43;100.00;99998.25;5097157;28;20055;-73
2024/02/22 06:21:27;;;;;;;18.77;10.38;;;;;;;3.56;100.00;99980.31;5088802;28;20039;-72
2024/02/22 06:23:53;;;;;;;23.80;13.15;;;;;;;3.56;100.00;99988.63;5103706;28;20135;-75
2024/02/22 06:26:19;;;;;;;22.23;13.20;;;;;;;3.40;100.00;99990.53;5076894;28;20035;-73
2024/02/22 06:28:44;;;;;;;22.05;12.30;;;;;;;3.34;100.00;99997.13;5101603;28;20028;-74
2024/02/22 06:31:09;;;;;;;19.05;11.20;;;;;;;3.36;100.00;99989.38;5105203;28;20097;-73
2024/02/22 06:33:35;;;;;;;14.95;10.13;;;;;;;3.52;100.00;99981.94;5099485;28;20024;-73
2024/02/22 06:36:01;;;;;;;20.77;11.68;;;;;;;3.72;100.00;99986.66;5083635;28;20023;-73
2024/02/22 06:38:26;;;;;;;20.40;10.15;;;;;;;3.85;100.00;99992.75;5088621;28;20039;-74
2024/02/22 06:40:52;;;;;;;16.60;8.52;;;;;;;4.18;100.00;99993.28;5098629;28;20046;-72
2024/02/22 06:43:17;;;;;;;15.90;8.73;;;;;;;4.23;100.00;99998.81;5113049;28;20042;-73
2024/02/22 06:45:43;;;;;;;13.93;9.23;;;;;;;4.40;100.00;99990.19;5110062;28;20042;-73
2024/02/22 06:48:09;;;;;;;19.48;9.85;;;;;;;4.72;100.00;99993.72;5093989;28;20032;-70
2024/02/22 06:50:34;;;;;;;19.17;7.82;;;;;;;4.79;100.00;99999.75;5104180;28;20085;-70
2024/02/22 06:53:01;;;;;;;17.80;9.60;;;;;;;4.94;100.00;99986.94;5088127;28;20038;-74
2024/02/22 06:55:33;;;;;;;17.98;11.55;;;;;;;5.29;100.00;99987.84;5090282;28;20065;-74
2024/02/22 06:58:00;;;;;;;15.88;8.85;;;;;;;5.36;100.00;99985.59;5086958;28;20101;-75
2024/02/22 07:00:26;;;;;;;14.60;9.90;;;;;;;5.68;100.00;99994.53;5111307;28;20057;-72
2024/02/22 07:02:52;;;;;;;22.77;12.52;;;;;;;5.93;100.00;99987.97;5111257;28;20046;-72
2024/02/22 07:05:18;;;;;;;20.58;11.10;;;;;;;5.73;100.00;99984.22;5111134;28;20032;-71
2024/02/22 07:07:43;;;;;;;17.95;10.93;;;;;;;5.79;100.00;99986.94;5111221;28;20023;-71
2024/02/22 07:10:13;;;;;;;14.45;10.27;;;;;;;5.68;100.00;99991.75;5102452;28;20063;-74
2024/02/22 07:12:41;;;;;;;14.77;8.30;;;;;;;5.96;100.00;99981.81;5076650;28;20030;-73
2024/02/22 07:15:07;;;;;;;17.40;9.65;;;;;;;5.95;99.40;99982.94;5089520;28;20496;-74
2024/02/22 07:17:32;;;;;;;10.93;8.15;;;;;;;5.74;99.06;99985.88;5085743;28;20096;-73
2024/02/22 07:19:58;;;;;;;15.23;8.50;;;;;;;5.80;99.72;99983.06;5107979;28;20108;-74
2024/02/22 07:22:23;;;;;;;11.68;7.68;;;;;;;5.81;97.99;99987.50;5108213;28;20046;-73
2024/02/22 07:24:49;;;;;;;13.57;8.40;;;;;;;5.85;97.92;99980.25;5107913;28;20482;-73
2024/02/22 07:27:14;;;;;;;13.38;9.35;;;;;;;6.05;96.98;99976.47;5107545;28;20028;-75
2024/02/22 07:29:40;;;;;;;15.50;9.95;;;;;;;5.97;96.93;99977.91;5109049;28;20028;-75
2024/02/22 07:32:08;;;;;;;18.75;9.50;;;;;;;5.82;97.62;99984.44;5109837;28;20032;-74
2024/02/22 07:34:33;;;;;;;12.43;8.82;;;;;;;6.04;97.75;99983.16;5106250;28;20416;-73
2024/02/22 07:36:58;;;;;;;16.83;10.02;;;;;;;6.03;96.38;99976.78;5108515;28;20032;-73
2024/02/22 07:39:24;;;;;;;17.15;10.65;;;;;;;6.52;97.90;99979.63;5093701;28;20043;-74
2024/02/22 07:41:49;;;;;;;13.73;8.93;;;;;;;6.56;95.90;99964.00;5103301;28;20027;-74
2024/02/22 07:44:15;;;;;;;19.00;9.98;;;;;;;6.49;96.73;99971.06;5109955;28;20027;-73
2024/02/22 07:46:40;;;;;;;13.85;9.57;;;;;;;6.41;95.54;99964.19;5109062;28;20035;-73
2024/02/22 07:49:06;;;;;;;14.23;10.30;;;;;;;6.80;93.84;99965.94;5110030;28;20038;-73
2024/02/22 07:51:32;;;;;;;15.15;8.90;;;;;;;7.15;91.65;99962.97;5091234;28;20031;-75
2024/02/22 07:53:58;;;;;;;17.25;9.20;;;;;;;7.63;90.42;99964.78;5110115;28;20038;-74
2024/02/22 07:56:24;;;;;;;15.48;10.00;;;;;;;7.72;86.68;99957.38;5091991;28;20530;-72
2024/02/22 07:58:52;;;;;;;18.60;9.77;;;;;;;7.56;87.60;99951.25;5109858;28;20044;-73
2024/02/22 08:01:18;;;;;;;20.27;11.32;;;;;;;7.57;87.01;99955.66;5107084;28;20427;-74
2024/02/22 08:03:44;;;;;;;14.20;10.25;;;;;;;7.89;87.10;99947.63;5109925;28;20027;-73
2024/02/22 08:06:11;;;;;;;13.48;9.15;;;;;;;7.94;85.58;99953.09;5091325;28;20038;-74
2024/02/22 08:08:36;;;;;;;15.90;9.30;;;;;;;7.87;85.26;99942.34;5108131;28;20062;-73
2024/02/22 08:11:02;;;;;;;13.18;9.52;;;;;;;8.10;85.40;99944.47;5101831;28;20055;-72
2024/02/22 08:13:28;;;;;;;14.45;10.13;;;;;;;8.48;81.51;99943.47;5097166;28;20043;-75
2024/02/22 08:16:03;;;;;;;16.92;9.85;;;;;;;8.34;82.76;99944.28;5071364;28;20082;-72
2024/02/22 08:18:28;;;;;;;14.57;9.90;;;;;;;8.32;80.46;99943.78;5103111;28;20027;-74
2024/02/22 08:20:54;;;;;;;14.63;9.60;;;;;;;8.77;80.63;99940.41;5107876;28;20431;-74
2024/02/22 08:23:19;;;;;;;19.85;9.63;;;;;;;9.18;79.41;99937.88;5106025;28;20470;-73
2024/02/22 08:25:45;;;;;;;15.73;9.38;;;;;;;8.94;79.56;99938.94;5106224;28;20031;-75
2024/02/22 08:28:10;;;;;;;11.38;8.80;;;;;;;9.55;78.17;99933.09;5109648;28;20110;-72
2024/02/22 08:30:36;;;;;;;14.27;8.50;;;;;;;9.39;75.10;99933.44;5097805;28;20040;-74
2024/02/22 08:33:02;;;;;;;13.27;9.50;;;;;;;9.25;76.34;99929.88;5101554;28;20027;-73
2024/02/22 08:35:28;;;;;;;12.18;8.07;;;;;;;9.58;72.50;99918.47;5084806;28;20032;-74
2024/02/22 08:37:54;;;;;;;14.75;9.45;;;;;;;9.51;74.75;99929.25;5089749;28;20024;-73
2024/02/22 08:40:19;;;;;;;10.60;7.55;;;;;;;9.79;72.93;99929.16;5085032;28;20028;-75
2024/02/22 08:42:45;;;;;;;10.18;6.28;;;;;;;10.07;70.85;99917.78;5108541;28;20116;-74
2024/02/22 08:45:14;;;;;;;11.68;8.55;;;;;;;10.63;71.58;99914.59;5087991;28;20199;-74
2024/02/22 08:47:41;;;;;;;15.35;8.60;;;;;;;10.92;68.28;99908.41;5107577;28;20042;-74
2024/02/22 08:50:08;;;;;;;9.77;7.32;;;;;;;10.86;67.90;99920.06;5104537;28;20031;-73
2024/02/22 08:52:33;;;;;;;13.30;6.50;;;;;;;10.75;66.18;99912.00;5107038;28;20597;-74
2024/02/22 08:54:59;;;;;;;12.73;7.30;;;;;;;10.81;66.01;99909.88;5105998;28;20039;-72
2024/02/22 08:57:24;;;;;;;18.25;7.82;;;;;;;11.12;67.52;99913.72;5102707;28;20472;-72
2024/02/22 08:59:51;;;;;;;6.47;5.55;;;;;;;10.82;64.42;99911.53;5105140;28;20425;-73
2024/02/22 09:02:17;;;;;;;7.40;6.10;;;;;;;10.99;67.41;99910.75;5100013;28;20027;-70
2024/02/22 09:04:43;;;;;;;7.90;5.95;;;;;;;11.13;66.68;99907.75;5100589;28;20039;-71
2024/02/22 09:07:08;;;;;;;10.30;6.53;;;;;;;10.82;64.22;99912.34;5107427;28;20034;-73
2024/02/22 09:09:34;;;;;;;10.48;7.72;;;;;;;10.65;66.30;99903.91;5106676;28;20031;-72
2024/02/22 09:11:59;;;;;;;9.00;6.80;;;;;;;11.30;65.31;99906.97;5107315;28;20035;-72
2024/02/22 09:14:25;;;;;;;13.07;6.65;;;;;;;11.55;64.42;99889.66;5087669;28;20035;-72
2024/02/22 09:16:51;;;;;;;9.15;7.50;;;;;;;11.80;63.38;99901.97;5103220;28;20031;-73
2024/02/22 09:19:16;;;;;;;15.70;6.10;;;;;;;12.08;62.14;99890.41;5083729;28;20035;-73
2024/02/22 09:21:45;;;;;;;8.98;6.45;;;;;;;11.98;63.40;99890.72;5078310;28;20062;-71
2024/02/22 09:24:11;;;;;;;7.47;6.07;;;;;;;12.04;61.93;99895.84;5108262;28;20035;-73
2024/02/22 09:26:36;;;;;;;10.38;6.22;;;;;;;12.01;60.37;99899.28;5109177;28;20138;-71
2024/02/22 09:29:05;;;;;;;10.23;7.18;;;;;;;12.37;60.58;99891.59;5109090;28;20028;-73
2024/02/22 09:31:30;;;;;;;8.13;5.85;;;;;;;12.46;59.63;99897.16;5102872;28;20488;-72
2024/02/22 09:33:56;;;;;;;8.23;6.00;;;;;;;12.73;56.72;99892.22;5084046;28;20028;-72
2024/02/22 09:36:21;;;;;;;7.47;5.68;;;;;;;13.03;55.38;99890.22;5109358;28;20500;-73
2024/02/22 09:38:47;;;;;;;6.97;5.65;;;;;;;12.84;55.22;99887.03;5090582;28;20032;-73
2024/02/22 09:41:13;;;;;;;9.75;8.43;;;;;;;13.36;55.00;99887.81;5109308;28;20034;-72
2024/02/22 09:43:40;;;;;;;10.80;8.98;;;;;;;13.53;55.61;99878.44;5090452;28;20032;-72
2024/02/22 09:46:07;;;;;;;12.50;8.63;;;;;;;13.79;54.76;99872.56;5106488;28;20111;-73
2024/02/22 09:48:33;;;;;;;7.13;5.28;;;;;;;13.55;56.63;99867.66;5080723;28;20039;-75
2024/02/22 09:50:59;;;;;;;12.45;5.80;;;;;;;13.26;56.20;99856.16;5097591;28;20028;-73
2024/02/22 09:53:27;;;;;;;9.55;6.45;;;;;;;13.30;57.11;99864.72;5105339;28;20031;-74
2024/02/22 09:55:54;;;;;;;10.38;5.57;;;;;;;13.00;57.07;99860.00;5083557;28;20043;-74
2024/02/22 09:58:21;;;;;;;6.82;5.38;;;;;;;12.81;57.31;99859.66;5108932;28;20417;-71
2024/02/22 10:00:47;;;;;;;7.90;5.57;;;;;;;12.84;58.45;99856.16;5089974;28;20406;-70
2024/02/22 10:03:12;;;;;;;10.38;6.22;;;;;;;12.91;57.82;99851.66;5108740;28;20036;-73
2024/02/22 10:05:38;;;;;;;6.85;5.28;;;;;;;12.87;57.04;99852.66;5109164;28;20034;-74
2024/02/22 10:08:13;;;;;;;8.70;5.43;;;;;;;13.40;54.80;99841.81;5106899;28;20099;-73
2024/02/22 10:10:40;;;;;;;6.22;5.47;;;;;;;13.71;54.17;99846.19;5087599;28;20031;-73
2024/02/22 10:13:06;;;;;;;7.28;5.93;;;;;;;13.46;55.57;99832.06;5107504;28;20033;-75
2024/02/22 10:15:33;;;;;;;9.45;5.90;;;;;;;13.25;55.63;99831.22;5106661;28;20521;-72
2024/02/22 10:17:59;;;;;;;14.73;6.88;;;;;;;13.44;55.51;99825.94;5089746;28;20491;-71
2024/02/22 10:20:32;;;;;;;9.43;6.63;;;;;;;13.42;54.95;99830.25;5089278;28;20038;-71
2024/02/22 10:23:05;;;;;;;8.07;5.47;;;;;;;13.62;56.03;99812.53;5088543;28;20051;-69
2024/02/22 10:25:31;;;;;;;9.30;5.45;;;;;;;13.62;55.06;99809.72;5102450;28;20031;-70
2024/02/22 10:27:56;;;;;;;8.10;5.47;;;;;;;13.60;55.10;99800.00;5092342;28;20470;-71
2024/02/22 10:30:26;;;;;;;9.85;6.13;;;;;;;13.58;55.35;99796.72;5068956;28;20078;-72
2024/02/22 10:32:55;;;;;;;7.93;5.85;;;;;;;13.56;55.52;99787.81;5084190;28;20032;-70
2024/02/22 10:35:23;;;;;;;11.95;6.63;;;;;;;13.87;54.36;99786.47;5067275;28;20075;-70
2024/02/22 10:37:54;;;;;;;6.70;4.80;;;;;;;13.86;55.62;99780.00;5099011;28;20023;-73
2024/02/22 10:40:20;;;;;;;9.20;6.03;;;;;;;13.79;54.95;99776.13;5107835;28;20028;-72
2024/02/22 10:42:50;;;;;;;13.43;7.35;;;;;;;13.57;54.66;99775.38;5092923;28;20409;-72
2024/02/22 10:45:15;;;;;;;8.48;6.50;;;;;;;13.53;54.88;99772.47;5087855;28;20027;-70
2024/02/22 10:47:43;;;;;;;13.40;7.95;;;;;;;13.77;55.34;99770.88;5087582;28;20441;-75
2024/02/22 10:50:13;;;;;;;10.05;6.88;;;;;;;13.69;55.30;99757.75;5087162;28;20096;-70
2024/02/22 10:52:42;;;;;;;;;;;;;;;13.83;56.14;99751.78;5096822;28;20484;-69
2024/02/22 10:55:15;;;;;;;10.07;7.57;;;;;;;14.12;57.15;99745.13;5107468;28;19916;-72
2024/02/22 10:57:44;;;;;;;10.63;8.25;;;;;;;13.88;56.64;99746.75;5099507;28;20052;-73
2024/02/22 11:00:13;;;;;;;12.52;8.77;;;;;;;13.69;56.62;99738.88;5075762;28;20480;-71
2024/02/22 11:02:39;;;;;;;11.70;7.15;;;;;;;13.78;58.20;99732.34;5100079;28;20035;-70
2024/02/22 11:05:09;;;;;;;17.90;7.82;;;;;;;13.89;57.62;99736.31;5097604;28;20043;-70
2024/02/22 11:07:51;;;;;;;11.77;8.53;;;;;;;13.81;56.03;99724.03;5091312;28;20031;-68
2024/02/22 11:10:17;;;;;;;13.35;8.65;;;;;;;14.13;55.99;99729.88;5076868;28;20033;-70
2024/02/22 11:12:44;;;;;;;11.90;8.45;;;;;;;14.10;55.33;99719.31;5094068;28;20122;-71
2024/02/22 11:15:10;;;;;;;10.50;7.70;;;;;;;14.11;54.43;99720.16;5103003;28;20414;-68
2024/02/22 11:17:37;;;;;;;10.07;7.38;;;;;;;14.29;55.48;99703.84;5073985;28;20138;-72
2024/02/22 11:20:09;;;;;;;10.77;7.45;;;;;;;14.25;55.29;99702.91;5080445;28;20089;-68
2024/02/22 11:22:37;;;;;;;14.00;8.45;;;;;;;14.22;55.69;99701.63;5098599;28;20142;-69
2024/02/22 11:25:06;;;;;;;11.75;7.32;;;;;;;14.35;54.45;99696.78;5106147;28;20070;-68